sensor_id;sensor_type;location;lat;lon;timestamp;temperature;humidity
19888;DHT22;10106;51.332;12.336;2023-06-22T00:00:54;20.90;99.90
19888;DHT22;10106;51.332;12.336;2023-06-22T00:03:21;20.80;99.90
19888;DHT22;10106;51.332;12.336;2023-06-22T00:05:47;20.80;99.90
19888;DHT22;10106;51.332;12.336;2023-06-22T00:08:15;20.80;99.90
19888;DHT22;10106;51.332;12.336;2023-06-22T00:10:41;20.70;99.90
19888;DHT22;10106;51.332;12.336;2023-06-22T00:13:07;20.70;99.90
19888;DHT22;10106;51.332;12.336;2023-06-22T00:15:33;20.70;99.90
19888;DHT22;10106;51.332;12.336;2023-06-22T00:17:59;20.60;99.90
19888;DHT22;10106;51.332;12.336;2023-06-22T00:20:25;20.60;99.90
19888;DHT22;10106;51.332;12.336;2023-06-22T00:22:54;20.60;99.90
19888;DHT22;10106;51.332;12.336;2023-06-22T00:25:20;20.50;99.90
19888;DHT22;10106;51.332;12.336;2023-06-22T00:27:46;20.50;99.90
19888;DHT22;10106;51.332;12.336;2023-06-22T00:30:11;20.50;99.90
19888;DHT22;10106;51.332;12.336;2023-06-22T00:32:37;20.40;99.90
19888;DHT22;10106;51.332;12.336;2023-06-22T00:37:32;20.40;99.90
19888;DHT22;10106;51.332;12.336;2023-06-22T00:39:58;20.30;99.90
19888;DHT22;10106;51.332;12.336;2023-06-22T00:42:24;20.30;99.90
19888;DHT22;10106;51.332;12.336;2023-06-22T00:44:49;20.20;99.90
19888;DHT22;10106;51.332;12.336;2023-06-22T00:47:15;20.20;99.90
19888;DHT22;10106;51.332;12.336;2023-06-22T00:49:42;20.20;99.90
19888;DHT22;10106;51.332;12.336;2023-06-22T00:52:08;20.10;99.90
19888;DHT22;10106;51.332;12.336;2023-06-22T00:54:42;20.10;99.90
19888;DHT22;10106;51.332;12.336;2023-06-22T00:57:13;20.10;99.90
19888;DHT22;10106;51.332;12.336;2023-06-22T00:59:44;20.10;99.90
19888;DHT22;10106;51.332;12.336;2023-06-22T01:02:10;20.00;99.90
19888;DHT22;10106;51.332;12.336;2023-06-22T01:04:36;20.00;99.90
19888;DHT22;10106;51.332;12.336;2023-06-22T01:10:08;20.10;99.90
19888;DHT22;10106;51.332;12.336;2023-06-22T01:12:43;20.00;99.90
19888;DHT22;10106;51.332;12.336;2023-06-22T01:15:14;20.00;99.90
19888;DHT22;10106;51.332;12.336;2023-06-22T01:17:40;20.00;99.90
19888;DHT22;10106;51.332;12.336;2023-06-22T01:20:06;20.00;99.90
19888;DHT22;10106;51.332;12.336;2023-06-22T01:22:37;19.90;99.90
19888;DHT22;10106;51.332;12.336;2023-06-22T01:25:11;19.90;99.90
19888;DHT22;10106;51.332;12.336;2023-06-22T01:30:21;19.80;99.90
19888;DHT22;10106;51.332;12.336;2023-06-22T01:32:48;19.80;99.90
19888;DHT22;10106;51.332;12.336;2023-06-22T01:35:15;19.80;99.90
19888;DHT22;10106;51.332;12.336;2023-06-22T01:37:41;19.70;99.90
19888;DHT22;10106;51.332;12.336;2023-06-22T01:40:07;19.70;99.90
19888;DHT22;10106;51.332;12.336;2023-06-22T01:42:33;19.60;99.90
19888;DHT22;10106;51.332;12.336;2023-06-22T01:44:59;19.60;99.90
19888;DHT22;10106;51.332;12.336;2023-06-22T01:47:25;19.60;99.90
19888;DHT22;10106;51.332;12.336;2023-06-22T01:49:53;19.50;99.90
19888;DHT22;10106;51.332;12.336;2023-06-22T01:52:19;19.50;99.90
19888;DHT22;10106;51.332;12.336;2023-06-22T01:54:49;19.60;99.90
19888;DHT22;10106;51.332;12.336;2023-06-22T01:57:15;19.60;99.90
19888;DHT22;10106;51.332;12.336;2023-06-22T01:59:44;19.70;99.90
19888;DHT22;10106;51.332;12.336;2023-06-22T02:02:10;19.70;99.90
19888;DHT22;10106;51.332;12.336;2023-06-22T02:04:44;19.70;99.90
19888;DHT22;10106;51.332;12.336;2023-06-22T02:07:13;19.60;99.90
19888;DHT22;10106;51.332;12.336;2023-06-22T02:09:41;19.60;99.90
19888;DHT22;10106;51.332;12.336;2023-06-22T02:12:08;19.60;99.90
19888;DHT22;10106;51.332;12.336;2023-06-22T02:14:34;19.50;99.90
19888;DHT22;10106;51.332;12.336;2023-06-22T02:17:00;19.50;99.90
19888;DHT22;10106;51.332;12.336;2023-06-22T02:19:26;19.40;99.90
19888;DHT22;10106;51.332;12.336;2023-06-22T02:21:52;19.30;99.90
19888;DHT22;10106;51.332;12.336;2023-06-22T02:24:18;19.30;99.90
19888;DHT22;10106;51.332;12.336;2023-06-22T02:26:43;19.30;99.90
19888;DHT22;10106;51.332;12.336;2023-06-22T02:29:10;19.20;99.90
19888;DHT22;10106;51.332;12.336;2023-06-22T02:31:36;19.20;99.90
19888;DHT22;10106;51.332;12.336;2023-06-22T02:34:02;19.20;99.90
19888;DHT22;10106;51.332;12.336;2023-06-22T02:36:27;19.20;99.90
19888;DHT22;10106;51.332;12.336;2023-06-22T02:38:55;19.20;99.90
19888;DHT22;10106;51.332;12.336;2023-06-22T02:41:26;19.30;99.90
19888;DHT22;10106;51.332;12.336;2023-06-22T02:43:52;19.30;99.90
19888;DHT22;10106;51.332;12.336;2023-06-22T02:46:17;19.30;99.90
19888;DHT22;10106;51.332;12.336;2023-06-22T02:48:43;19.30;99.90
19888;DHT22;10106;51.332;12.336;2023-06-22T02:51:09;19.40;99.90
19888;DHT22;10106;51.332;12.336;2023-06-22T02:53:34;19.30;99.90
19888;DHT22;10106;51.332;12.336;2023-06-22T02:56:03;19.40;99.90
19888;DHT22;10106;51.332;12.336;2023-06-22T02:58:31;19.30;99.90
19888;DHT22;10106;51.332;12.336;2023-06-22T03:01:04;19.30;99.90
19888;DHT22;10106;51.332;12.336;2023-06-22T03:03:30;19.30;99.90
19888;DHT22;10106;51.332;12.336;2023-06-22T03:05:55;19.40;99.90
19888;DHT22;10106;51.332;12.336;2023-06-22T03:08:21;19.40;99.90
19888;DHT22;10106;51.332;12.336;2023-06-22T03:10:46;19.40;99.90
19888;DHT22;10106;51.332;12.336;2023-06-22T03:13:12;19.40;99.90
19888;DHT22;10106;51.332;12.336;2023-06-22T03:15:37;19.40;99.90
19888;DHT22;10106;51.332;12.336;2023-06-22T03:18:03;19.40;99.90
19888;DHT22;10106;51.332;12.336;2023-06-22T03:20:29;19.50;99.90
19888;DHT22;10106;51.332;12.336;2023-06-22T03:22:58;19.50;99.90
19888;DHT22;10106;51.332;12.336;2023-06-22T03:25:24;19.60;99.90
19888;DHT22;10106;51.332;12.336;2023-06-22T03:27:50;19.60;99.90
19888;DHT22;10106;51.332;12.336;2023-06-22T03:30:15;19.70;99.90
19888;DHT22;10106;51.332;12.336;2023-06-22T03:32:41;19.70;99.90
19888;DHT22;10106;51.332;12.336;2023-06-22T03:35:08;19.70;99.90
19888;DHT22;10106;51.332;12.336;2023-06-22T03:37:33;19.80;99.90
19888;DHT22;10106;51.332;12.336;2023-06-22T03:39:59;19.80;99.90
19888;DHT22;10106;51.332;12.336;2023-06-22T03:42:25;19.90;99.90
19888;DHT22;10106;51.332;12.336;2023-06-22T03:44:51;20.00;99.90
19888;DHT22;10106;51.332;12.336;2023-06-22T03:47:16;20.20;99.90
19888;DHT22;10106;51.332;12.336;2023-06-22T03:49:42;20.40;99.90
19888;DHT22;10106;51.332;12.336;2023-06-22T03:52:08;20.70;99.90
19888;DHT22;10106;51.332;12.336;2023-06-22T03:54:33;21.00;99.90
19888;DHT22;10106;51.332;12.336;2023-06-22T03:56:59;21.20;99.90
19888;DHT22;10106;51.332;12.336;2023-06-22T03:59:25;21.40;99.90
19888;DHT22;10106;51.332;12.336;2023-06-22T04:01:50;21.60;99.90
19888;DHT22;10106;51.332;12.336;2023-06-22T04:04:19;21.80;99.90
19888;DHT22;10106;51.332;12.336;2023-06-22T04:06:45;22.00;99.90
19888;DHT22;10106;51.332;12.336;2023-06-22T04:09:10;22.40;99.90
19888;DHT22;10106;51.332;12.336;2023-06-22T04:11:36;22.60;99.90
19888;DHT22;10106;51.332;12.336;2023-06-22T04:14:01;23.00;99.90
19888;DHT22;10106;51.332;12.336;2023-06-22T04:16:27;23.40;99.90
19888;DHT22;10106;51.332;12.336;2023-06-22T04:18:53;23.90;99.90
19888;DHT22;10106;51.332;12.336;2023-06-22T04:21:18;24.20;99.90
19888;DHT22;10106;51.332;12.336;2023-06-22T04:23:45;24.30;99.90
19888;DHT22;10106;51.332;12.336;2023-06-22T04:26:11;24.10;99.90
19888;DHT22;10106;51.332;12.336;2023-06-22T04:28:37;23.70;99.90
19888;DHT22;10106;51.332;12.336;2023-06-22T04:31:03;23.30;99.90
19888;DHT22;10106;51.332;12.336;2023-06-22T04:33:28;22.90;99.90
19888;DHT22;10106;51.332;12.336;2023-06-22T04:35:54;22.60;99.90
19888;DHT22;10106;51.332;12.336;2023-06-22T04:38:22;22.40;99.90
19888;DHT22;10106;51.332;12.336;2023-06-22T04:40:48;22.10;99.90
19888;DHT22;10106;51.332;12.336;2023-06-22T04:43:14;21.90;99.90
19888;DHT22;10106;51.332;12.336;2023-06-22T04:45:39;21.80;99.90
19888;DHT22;10106;51.332;12.336;2023-06-22T04:48:05;21.70;99.90
19888;DHT22;10106;51.332;12.336;2023-06-22T04:50:31;21.60;99.90
19888;DHT22;10106;51.332;12.336;2023-06-22T04:52:56;21.50;99.90
19888;DHT22;10106;51.332;12.336;2023-06-22T04:55:23;21.50;99.90
19888;DHT22;10106;51.332;12.336;2023-06-22T04:57:50;21.40;99.90
19888;DHT22;10106;51.332;12.336;2023-06-22T05:13:17;23.00;99.90
19888;DHT22;10106;51.332;12.336;2023-06-22T05:15:43;24.10;99.90
19888;DHT22;10106;51.332;12.336;2023-06-22T05:18:09;24.80;99.90
19888;DHT22;10106;51.332;12.336;2023-06-22T05:20:37;25.80;99.90
19888;DHT22;10106;51.332;12.336;2023-06-22T05:23:02;26.50;99.90
19888;DHT22;10106;51.332;12.336;2023-06-22T05:25:28;27.60;99.90
19888;DHT22;10106;51.332;12.336;2023-06-22T05:27:55;29.00;99.90
19888;DHT22;10106;51.332;12.336;2023-06-22T05:30:20;29.20;99.90
19888;DHT22;10106;51.332;12.336;2023-06-22T05:32:46;28.30;99.90
19888;DHT22;10106;51.332;12.336;2023-06-22T05:35:12;27.40;99.90
19888;DHT22;10106;51.332;12.336;2023-06-22T05:37:37;26.50;99.90
19888;DHT22;10106;51.332;12.336;2023-06-22T05:40:03;25.80;99.90
19888;DHT22;10106;51.332;12.336;2023-06-22T05:42:29;25.70;99.90
19888;DHT22;10106;51.332;12.336;2023-06-22T05:44:55;25.70;99.90
19888;DHT22;10106;51.332;12.336;2023-06-22T05:47:20;26.70;99.90
19888;DHT22;10106;51.332;12.336;2023-06-22T05:49:48;28.20;99.90
19888;DHT22;10106;51.332;12.336;2023-06-22T05:52:13;29.90;99.90
19888;DHT22;10106;51.332;12.336;2023-06-22T05:54:39;31.10;99.90
19888;DHT22;10106;51.332;12.336;2023-06-22T05:57:07;31.60;99.90
19888;DHT22;10106;51.332;12.336;2023-06-22T05:59:33;31.90;99.90
19888;DHT22;10106;51.332;12.336;2023-06-22T06:01:58;31.70;99.90
19888;DHT22;10106;51.332;12.336;2023-06-22T06:04:24;31.20;99.90
19888;DHT22;10106;51.332;12.336;2023-06-22T06:06:50;30.50;99.90
19888;DHT22;10106;51.332;12.336;2023-06-22T06:09:15;30.10;99.90
19888;DHT22;10106;51.332;12.336;2023-06-22T06:11:44;30.30;99.90
19888;DHT22;10106;51.332;12.336;2023-06-22T06:14:10;29.70;99.90
19888;DHT22;10106;51.332;12.336;2023-06-22T06:16:35;29.20;99.90
19888;DHT22;10106;51.332;12.336;2023-06-22T06:19:01;29.40;99.90
19888;DHT22;10106;51.332;12.336;2023-06-22T06:21:27;29.30;99.90
19888;DHT22;10106;51.332;12.336;2023-06-22T06:23:52;29.50;99.90
19888;DHT22;10106;51.332;12.336;2023-06-22T06:26:18;29.40;99.90
19888;DHT22;10106;51.332;12.336;2023-06-22T06:28:53;29.80;99.90
19888;DHT22;10106;51.332;12.336;2023-06-22T06:31:20;29.70;99.90
19888;DHT22;10106;51.332;12.336;2023-06-22T06:33:46;29.40;99.90
19888;DHT22;10106;51.332;12.336;2023-06-22T06:36:11;28.70;99.90
19888;DHT22;10106;51.332;12.336;2023-06-22T06:38:37;28.80;99.90
19888;DHT22;10106;51.332;12.336;2023-06-22T06:41:03;28.80;99.90
19888;DHT22;10106;51.332;12.336;2023-06-22T06:43:28;29.10;99.90
19888;DHT22;10106;51.332;12.336;2023-06-22T06:45:54;29.20;99.90
19888;DHT22;10106;51.332;12.336;2023-06-22T06:48:20;29.00;99.90
19888;DHT22;10106;51.332;12.336;2023-06-22T06:50:45;29.10;99.90
19888;DHT22;10106;51.332;12.336;2023-06-22T06:53:11;29.10;99.90
19888;DHT22;10106;51.332;12.336;2023-06-22T06:55:37;29.70;99.90
19888;DHT22;10106;51.332;12.336;2023-06-22T06:58:03;30.20;99.90
19888;DHT22;10106;51.332;12.336;2023-06-22T07:00:32;29.80;99.90
19888;DHT22;10106;51.332;12.336;2023-06-22T07:02:59;29.80;99.90
19888;DHT22;10106;51.332;12.336;2023-06-22T07:05:25;31.40;99.90
19888;DHT22;10106;51.332;12.336;2023-06-22T07:07:52;32.40;99.60
19888;DHT22;10106;51.332;12.336;2023-06-22T07:10:18;33.10;97.70
19888;DHT22;10106;51.332;12.336;2023-06-22T07:12:44;32.60;97.20
19888;DHT22;10106;51.332;12.336;2023-06-22T07:15:13;32.30;96.90
19888;DHT22;10106;51.332;12.336;2023-06-22T07:17:39;31.00;97.20
19888;DHT22;10106;51.332;12.336;2023-06-22T07:20:06;29.80;99.40
19888;DHT22;10106;51.332;12.336;2023-06-22T07:22:35;29.00;99.90
19888;DHT22;10106;51.332;12.336;2023-06-22T07:25:02;28.80;99.90
19888;DHT22;10106;51.332;12.336;2023-06-22T07:27:30;28.80;99.90
19888;DHT22;10106;51.332;12.336;2023-06-22T07:30:01;29.80;99.90
19888;DHT22;10106;51.332;12.336;2023-06-22T07:32:27;31.20;99.30
19888;DHT22;10106;51.332;12.336;2023-06-22T07:34:54;31.40;98.30
19888;DHT22;10106;51.332;12.336;2023-06-22T07:37:19;31.10;98.30
19888;DHT22;10106;51.332;12.336;2023-06-22T07:39:45;32.30;97.20
19888;DHT22;10106;51.332;12.336;2023-06-22T07:42:10;34.30;94.60
19888;DHT22;10106;51.332;12.336;2023-06-22T07:44:36;35.30;91.50
19888;DHT22;10106;51.332;12.336;2023-06-22T07:47:02;35.80;89.00
19888;DHT22;10106;51.332;12.336;2023-06-22T07:49:28;35.00;88.60
19888;DHT22;10106;51.332;12.336;2023-06-22T07:51:54;34.40;87.20
19888;DHT22;10106;51.332;12.336;2023-06-22T07:54:20;33.30;89.50
19888;DHT22;10106;51.332;12.336;2023-06-22T07:56:46;33.30;89.90
19888;DHT22;10106;51.332;12.336;2023-06-22T07:59:12;33.70;88.90
19888;DHT22;10106;51.332;12.336;2023-06-22T08:01:37;34.70;86.50
19888;DHT22;10106;51.332;12.336;2023-06-22T08:04:03;35.60;83.10
19888;DHT22;10106;51.332;12.336;2023-06-22T08:06:29;36.40;81.00
19888;DHT22;10106;51.332;12.336;2023-06-22T08:08:55;36.80;78.20
19888;DHT22;10106;51.332;12.336;2023-06-22T08:11:23;37.30;75.20
19888;DHT22;10106;51.332;12.336;2023-06-22T08:13:50;37.50;73.30
19888;DHT22;10106;51.332;12.336;2023-06-22T08:16:16;37.70;71.80
19888;DHT22;10106;51.332;12.336;2023-06-22T08:18:41;37.30;71.90
19888;DHT22;10106;51.332;12.336;2023-06-22T08:21:07;37.50;71.60
19888;DHT22;10106;51.332;12.336;2023-06-22T08:23:33;38.00;70.10
19888;DHT22;10106;51.332;12.336;2023-06-22T08:25:58;37.40;69.70
19888;DHT22;10106;51.332;12.336;2023-06-22T08:28:24;37.00;70.50
19888;DHT22;10106;51.332;12.336;2023-06-22T08:30:50;36.70;69.90
19888;DHT22;10106;51.332;12.336;2023-06-22T08:33:15;35.70;70.30
19888;DHT22;10106;51.332;12.336;2023-06-22T08:35:43;34.40;72.90
19888;DHT22;10106;51.332;12.336;2023-06-22T08:38:09;33.50;76.10
19888;DHT22;10106;51.332;12.336;2023-06-22T08:40:36;32.90;78.00
19888;DHT22;10106;51.332;12.336;2023-06-22T08:43:01;32.30;80.00
19888;DHT22;10106;51.332;12.336;2023-06-22T08:45:27;32.10;81.10
19888;DHT22;10106;51.332;12.336;2023-06-22T08:47:52;32.10;81.70
19888;DHT22;10106;51.332;12.336;2023-06-22T08:50:18;33.20;80.60
19888;DHT22;10106;51.332;12.336;2023-06-22T08:52:44;33.50;78.60
19888;DHT22;10106;51.332;12.336;2023-06-22T08:55:11;33.30;78.70
19888;DHT22;10106;51.332;12.336;2023-06-22T08:57:36;33.30;78.10
19888;DHT22;10106;51.332;12.336;2023-06-22T09:00:08;34.00;77.50
19888;DHT22;10106;51.332;12.336;2023-06-22T09:02:48;36.20;74.00
19888;DHT22;10106;51.332;12.336;2023-06-22T09:05:14;38.10;70.10
19888;DHT22;10106;51.332;12.336;2023-06-22T09:07:40;38.90;65.30
19888;DHT22;10106;51.332;12.336;2023-06-22T09:10:06;39.10;63.40
19888;DHT22;10106;51.332;12.336;2023-06-22T09:12:32;39.50;61.10
19888;DHT22;10106;51.332;12.336;2023-06-22T09:14:58;38.20;61.00
19888;DHT22;10106;51.332;12.336;2023-06-22T09:17:25;37.50;62.70
19888;DHT22;10106;51.332;12.336;2023-06-22T09:19:51;37.40;63.00
19888;DHT22;10106;51.332;12.336;2023-06-22T09:22:17;37.40;62.70
19888;DHT22;10106;51.332;12.336;2023-06-22T09:24:42;37.40;62.60
19888;DHT22;10106;51.332;12.336;2023-06-22T09:27:08;37.40;61.30
19888;DHT22;10106;51.332;12.336;2023-06-22T09:29:33;37.30;61.40
19888;DHT22;10106;51.332;12.336;2023-06-22T09:31:59;35.00;63.50
19888;DHT22;10106;51.332;12.336;2023-06-22T09:34:26;34.10;66.60
19888;DHT22;10106;51.332;12.336;2023-06-22T09:36:51;34.20;67.40
19888;DHT22;10106;51.332;12.336;2023-06-22T09:39:18;34.70;66.40
19888;DHT22;10106;51.332;12.336;2023-06-22T09:41:43;35.10;66.00
19888;DHT22;10106;51.332;12.336;2023-06-22T09:44:09;35.00;65.60
19888;DHT22;10106;51.332;12.336;2023-06-22T09:46:35;33.90;65.10
19888;DHT22;10106;51.332;12.336;2023-06-22T09:49:00;33.00;67.50
19888;DHT22;10106;51.332;12.336;2023-06-22T09:51:26;32.20;70.90
19888;DHT22;10106;51.332;12.336;2023-06-22T09:53:52;32.10;70.40
19888;DHT22;10106;51.332;12.336;2023-06-22T09:56:19;32.90;69.60
19888;DHT22;10106;51.332;12.336;2023-06-22T09:58:45;33.10;69.00
19888;DHT22;10106;51.332;12.336;2023-06-22T10:01:11;33.20;67.70
19888;DHT22;10106;51.332;12.336;2023-06-22T10:03:37;33.70;67.90
19888;DHT22;10106;51.332;12.336;2023-06-22T10:06:06;34.80;65.50
19888;DHT22;10106;51.332;12.336;2023-06-22T10:08:31;34.80;64.10
19888;DHT22;10106;51.332;12.336;2023-06-22T10:10:57;35.90;62.40
19888;DHT22;10106;51.332;12.336;2023-06-22T10:13:22;35.60;60.30
19888;DHT22;10106;51.332;12.336;2023-06-22T10:15:48;35.20;60.20
19888;DHT22;10106;51.332;12.336;2023-06-22T10:18:16;33.90;61.00
19888;DHT22;10106;51.332;12.336;2023-06-22T10:20:42;32.80;62.10
19888;DHT22;10106;51.332;12.336;2023-06-22T10:23:08;32.60;64.90
19888;DHT22;10106;51.332;12.336;2023-06-22T10:25:34;32.30;67.20
19888;DHT22;10106;51.332;12.336;2023-06-22T10:27:59;31.80;69.60
19888;DHT22;10106;51.332;12.336;2023-06-22T10:30:25;31.50;70.50
19888;DHT22;10106;51.332;12.336;2023-06-22T10:32:51;31.40;70.40
19888;DHT22;10106;51.332;12.336;2023-06-22T10:35:16;31.20;70.70
19888;DHT22;10106;51.332;12.336;2023-06-22T10:37:43;31.30;70.30
19888;DHT22;10106;51.332;12.336;2023-06-22T10:40:09;31.60;70.30
19888;DHT22;10106;51.332;12.336;2023-06-22T10:42:35;31.40;71.10
19888;DHT22;10106;51.332;12.336;2023-06-22T10:45:01;31.30;71.50
19888;DHT22;10106;51.332;12.336;2023-06-22T10:47:26;31.20;72.40
19888;DHT22;10106;51.332;12.336;2023-06-22T10:49:52;31.30;72.70
19888;DHT22;10106;51.332;12.336;2023-06-22T10:52:17;31.50;72.00
19888;DHT22;10106;51.332;12.336;2023-06-22T10:54:43;31.30;71.70
19888;DHT22;10106;51.332;12.336;2023-06-22T10:57:09;31.60;71.30
19888;DHT22;10106;51.332;12.336;2023-06-22T10:59:34;31.20;70.20
19888;DHT22;10106;51.332;12.336;2023-06-22T11:02:00;31.10;70.80
19888;DHT22;10106;51.332;12.336;2023-06-22T11:04:26;31.00;72.00
19888;DHT22;10106;51.332;12.336;2023-06-22T11:06:51;31.40;71.80
19888;DHT22;10106;51.332;12.336;2023-06-22T11:09:17;31.70;71.80
19888;DHT22;10106;51.332;12.336;2023-06-22T11:11:47;31.80;71.20
19888;DHT22;10106;51.332;12.336;2023-06-22T11:14:12;31.70;71.10
19888;DHT22;10106;51.332;12.336;2023-06-22T11:16:38;31.60;71.30
19888;DHT22;10106;51.332;12.336;2023-06-22T11:19:04;31.60;71.50
19888;DHT22;10106;51.332;12.336;2023-06-22T11:21:30;31.60;72.00
19888;DHT22;10106;51.332;12.336;2023-06-22T11:23:57;31.30;73.10
19888;DHT22;10106;51.332;12.336;2023-06-22T11:26:22;31.10;72.60
19888;DHT22;10106;51.332;12.336;2023-06-22T11:28:48;31.40;73.20
19888;DHT22;10106;51.332;12.336;2023-06-22T11:31:14;31.80;72.90
19888;DHT22;10106;51.332;12.336;2023-06-22T11:33:40;32.20;72.30
19888;DHT22;10106;51.332;12.336;2023-06-22T11:36:05;32.30;71.80
19888;DHT22;10106;51.332;12.336;2023-06-22T11:38:31;32.20;71.00
19888;DHT22;10106;51.332;12.336;2023-06-22T11:40:57;32.30;71.40
19888;DHT22;10106;51.332;12.336;2023-06-22T11:43:23;32.70;71.10
19888;DHT22;10106;51.332;12.336;2023-06-22T11:45:51;32.60;71.80
19888;DHT22;10106;51.332;12.336;2023-06-22T11:48:20;32.70;71.60
19888;DHT22;10106;51.332;12.336;2023-06-22T11:50:46;32.70;72.30
19888;DHT22;10106;51.332;12.336;2023-06-22T11:53:11;32.30;71.20
19888;DHT22;10106;51.332;12.336;2023-06-22T11:55:37;32.10;71.90
19888;DHT22;10106;51.332;12.336;2023-06-22T11:58:03;31.90;73.30
19888;DHT22;10106;51.332;12.336;2023-06-22T12:00:30;31.70;73.10
19888;DHT22;10106;51.332;12.336;2023-06-22T12:02:56;31.90;73.50
19888;DHT22;10106;51.332;12.336;2023-06-22T12:05:22;32.00;73.60
19888;DHT22;10106;51.332;12.336;2023-06-22T12:07:48;31.50;74.00
19888;DHT22;10106;51.332;12.336;2023-06-22T12:10:14;31.10;75.30
19888;DHT22;10106;51.332;12.336;2023-06-22T12:12:39;31.10;75.30
19888;DHT22;10106;51.332;12.336;2023-06-22T12:15:08;31.10;75.50
19888;DHT22;10106;51.332;12.336;2023-06-22T12:17:34;31.40;75.40
19888;DHT22;10106;51.332;12.336;2023-06-22T12:20:00;31.80;74.80
19888;DHT22;10106;51.332;12.336;2023-06-22T12:22:26;31.80;74.40
19888;DHT22;10106;51.332;12.336;2023-06-22T12:24:52;31.90;74.40
19888;DHT22;10106;51.332;12.336;2023-06-22T12:27:18;32.00;74.10
19888;DHT22;10106;51.332;12.336;2023-06-22T12:29:46;31.90;73.60
19888;DHT22;10106;51.332;12.336;2023-06-22T12:32:13;32.00;73.70
19888;DHT22;10106;51.332;12.336;2023-06-22T12:34:39;31.90;74.30
19888;DHT22;10106;51.332;12.336;2023-06-22T12:39:34;31.90;73.70
19888;DHT22;10106;51.332;12.336;2023-06-22T12:41:59;32.00;73.80
19888;DHT22;10106;51.332;12.336;2023-06-22T12:44:25;31.80;74.30
19888;DHT22;10106;51.332;12.336;2023-06-22T12:46:51;31.60;74.40
19888;DHT22;10106;51.332;12.336;2023-06-22T12:49:16;31.70;75.00
19888;DHT22;10106;51.332;12.336;2023-06-22T12:51:42;31.90;75.30
19888;DHT22;10106;51.332;12.336;2023-06-22T12:54:08;31.80;74.70
19888;DHT22;10106;51.332;12.336;2023-06-22T12:56:34;31.80;74.80
19888;DHT22;10106;51.332;12.336;2023-06-22T12:59:00;31.90;74.00
19888;DHT22;10106;51.332;12.336;2023-06-22T13:01:28;32.20;73.80
19888;DHT22;10106;51.332;12.336;2023-06-22T13:03:56;32.30;73.80
19888;DHT22;10106;51.332;12.336;2023-06-22T13:06:21;32.50;73.20
19888;DHT22;10106;51.332;12.336;2023-06-22T13:08:47;32.50;72.60
19888;DHT22;10106;51.332;12.336;2023-06-22T13:11:12;32.20;73.80
19888;DHT22;10106;51.332;12.336;2023-06-22T13:13:41;32.00;74.10
19888;DHT22;10106;51.332;12.336;2023-06-22T13:16:07;31.80;74.40
19888;DHT22;10106;51.332;12.336;2023-06-22T13:18:32;31.70;75.30
19888;DHT22;10106;51.332;12.336;2023-06-22T13:21:03;31.60;75.60
19888;DHT22;10106;51.332;12.336;2023-06-22T13:23:29;32.00;76.00
19888;DHT22;10106;51.332;12.336;2023-06-22T13:25:55;32.30;74.50
19888;DHT22;10106;51.332;12.336;2023-06-22T13:28:20;32.30;72.70
19888;DHT22;10106;51.332;12.336;2023-06-22T13:30:46;32.20;74.10
19888;DHT22;10106;51.332;12.336;2023-06-22T13:33:15;32.30;73.90
19888;DHT22;10106;51.332;12.336;2023-06-22T13:35:41;32.10;73.90
19888;DHT22;10106;51.332;12.336;2023-06-22T13:38:09;32.30;74.10
19888;DHT22;10106;51.332;12.336;2023-06-22T13:40:35;32.40;73.70
19888;DHT22;10106;51.332;12.336;2023-06-22T13:43:01;32.40;74.50
19888;DHT22;10106;51.332;12.336;2023-06-22T13:45:27;32.50;74.20
19888;DHT22;10106;51.332;12.336;2023-06-22T13:47:52;32.70;73.40
19888;DHT22;10106;51.332;12.336;2023-06-22T13:50:18;32.60;72.80
19888;DHT22;10106;51.332;12.336;2023-06-22T13:52:44;32.50;73.50
19888;DHT22;10106;51.332;12.336;2023-06-22T13:55:09;32.40;73.90
19888;DHT22;10106;51.332;12.336;2023-06-22T13:57:35;32.40;73.80
19888;DHT22;10106;51.332;12.336;2023-06-22T14:00:01;32.50;74.30
19888;DHT22;10106;51.332;12.336;2023-06-22T14:02:27;32.40;74.40
19888;DHT22;10106;51.332;12.336;2023-06-22T14:04:53;32.30;74.50
19888;DHT22;10106;51.332;12.336;2023-06-22T14:07:19;32.10;74.20
19888;DHT22;10106;51.332;12.336;2023-06-22T14:09:46;32.20;74.50
19888;DHT22;10106;51.332;12.336;2023-06-22T14:12:12;32.30;74.40
19888;DHT22;10106;51.332;12.336;2023-06-22T14:14:37;32.30;73.90
19888;DHT22;10106;51.332;12.336;2023-06-22T14:17:03;32.20;74.40
19888;DHT22;10106;51.332;12.336;2023-06-22T14:19:29;32.20;75.10
19888;DHT22;10106;51.332;12.336;2023-06-22T14:21:55;32.20;75.10
19888;DHT22;10106;51.332;12.336;2023-06-22T14:24:22;32.00;74.80
19888;DHT22;10106;51.332;12.336;2023-06-22T14:26:48;31.70;75.20
19888;DHT22;10106;51.332;12.336;2023-06-22T14:29:13;31.60;75.70
19888;DHT22;10106;51.332;12.336;2023-06-22T14:31:39;31.50;76.20
19888;DHT22;10106;51.332;12.336;2023-06-22T14:34:04;31.70;75.90
19888;DHT22;10106;51.332;12.336;2023-06-22T14:36:31;31.70;76.60
19888;DHT22;10106;51.332;12.336;2023-06-22T14:38:56;31.70;76.90
19888;DHT22;10106;51.332;12.336;2023-06-22T14:41:22;31.70;77.10
19888;DHT22;10106;51.332;12.336;2023-06-22T14:43:49;31.70;76.50
19888;DHT22;10106;51.332;12.336;2023-06-22T14:46:15;31.80;76.50
19888;DHT22;10106;51.332;12.336;2023-06-22T14:48:41;31.80;75.90
19888;DHT22;10106;51.332;12.336;2023-06-22T14:51:07;31.70;76.20
19888;DHT22;10106;51.332;12.336;2023-06-22T14:53:33;31.70;76.20
19888;DHT22;10106;51.332;12.336;2023-06-22T14:55:59;31.90;76.40
19888;DHT22;10106;51.332;12.336;2023-06-22T14:58:30;31.90;76.60
19888;DHT22;10106;51.332;12.336;2023-06-22T15:01:02;31.80;76.50
19888;DHT22;10106;51.332;12.336;2023-06-22T15:03:27;31.70;77.70
19888;DHT22;10106;51.332;12.336;2023-06-22T15:05:55;31.80;78.00
19888;DHT22;10106;51.332;12.336;2023-06-22T15:08:22;31.90;77.70
19888;DHT22;10106;51.332;12.336;2023-06-22T15:10:47;31.90;76.60
19888;DHT22;10106;51.332;12.336;2023-06-22T15:13:13;31.90;76.70
19888;DHT22;10106;51.332;12.336;2023-06-22T15:15:41;32.00;76.70
19888;DHT22;10106;51.332;12.336;2023-06-22T15:18:06;31.80;76.50
19888;DHT22;10106;51.332;12.336;2023-06-22T15:20:32;31.60;76.80
19888;DHT22;10106;51.332;12.336;2023-06-22T15:22:57;31.60;77.10
19888;DHT22;10106;51.332;12.336;2023-06-22T15:25:23;31.50;77.20
19888;DHT22;10106;51.332;12.336;2023-06-22T15:27:49;31.40;77.70
19888;DHT22;10106;51.332;12.336;2023-06-22T15:30:14;31.10;78.10
19888;DHT22;10106;51.332;12.336;2023-06-22T15:32:44;31.20;78.60